sensor_id;sensor_type;location;lat;lon;timestamp;temperature;humidity
7762;DHT22;3925;48.636;9.516;2022-08-21T00:00:50;15.80;99.90
7762;DHT22;3925;48.636;9.516;2022-08-21T00:03:18;15.90;99.90
7762;DHT22;3925;48.636;9.516;2022-08-21T00:05:48;15.90;99.90
7762;DHT22;3925;48.636;9.516;2022-08-21T00:08:17;15.80;99.90
7762;DHT22;3925;48.636;9.516;2022-08-21T00:10:45;15.80;99.90
7762;DHT22;3925;48.636;9.516;2022-08-21T00:13:13;15.90;99.90
7762;DHT22;3925;48.636;9.516;2022-08-21T00:15:41;15.90;99.90
7762;DHT22;3925;48.636;9.516;2022-08-21T00:18:09;15.90;99.90
7762;DHT22;3925;48.636;9.516;2022-08-21T00:20:38;15.80;99.90
7762;DHT22;3925;48.636;9.516;2022-08-21T00:23:06;15.80;99.90
7762;DHT22;3925;48.636;9.516;2022-08-21T00:25:34;15.90;99.90
7762;DHT22;3925;48.636;9.516;2022-08-21T00:28:02;16.00;99.90
7762;DHT22;3925;48.636;9.516;2022-08-21T00:30:30;16.00;99.90
7762;DHT22;3925;48.636;9.516;2022-08-21T00:32:58;15.90;99.90
7762;DHT22;3925;48.636;9.516;2022-08-21T00:35:29;15.90;99.90
7762;DHT22;3925;48.636;9.516;2022-08-21T00:37:56;15.90;99.90
7762;DHT22;3925;48.636;9.516;2022-08-21T00:40:27;15.90;99.90
7762;DHT22;3925;48.636;9.516;2022-08-21T00:42:56;15.80;99.90
7762;DHT22;3925;48.636;9.516;2022-08-21T00:45:24;15.70;99.90
7762;DHT22;3925;48.636;9.516;2022-08-21T00:47:54;15.70;99.90
7762;DHT22;3925;48.636;9.516;2022-08-21T00:50:23;15.80;99.90
7762;DHT22;3925;48.636;9.516;2022-08-21T00:52:52;15.90;99.90
7762;DHT22;3925;48.636;9.516;2022-08-21T00:55:20;15.80;99.90
7762;DHT22;3925;48.636;9.516;2022-08-21T00:57:51;15.90;99.90
7762;DHT22;3925;48.636;9.516;2022-08-21T01:00:23;15.80;99.90
7762;DHT22;3925;48.636;9.516;2022-08-21T01:02:50;15.60;99.90
7762;DHT22;3925;48.636;9.516;2022-08-21T01:05:17;15.60;99.90
7762;DHT22;3925;48.636;9.516;2022-08-21T01:07:44;15.60;99.90
7762;DHT22;3925;48.636;9.516;2022-08-21T01:10:12;15.70;99.90
7762;DHT22;3925;48.636;9.516;2022-08-21T01:12:40;15.70;99.90
7762;DHT22;3925;48.636;9.516;2022-08-21T01:15:08;15.80;99.90
7762;DHT22;3925;48.636;9.516;2022-08-21T01:17:37;15.70;99.90
7762;DHT22;3925;48.636;9.516;2022-08-21T01:20:07;15.60;99.90
7762;DHT22;3925;48.636;9.516;2022-08-21T01:22:35;15.70;99.90
7762;DHT22;3925;48.636;9.516;2022-08-21T01:25:04;15.90;99.90
7762;DHT22;3925;48.636;9.516;2022-08-21T01:27:31;15.90;99.90
7762;DHT22;3925;48.636;9.516;2022-08-21T01:30:03;15.90;99.90
7762;DHT22;3925;48.636;9.516;2022-08-21T01:32:31;15.80;99.90
7762;DHT22;3925;48.636;9.516;2022-08-21T01:34:57;15.80;99.90
7762;DHT22;3925;48.636;9.516;2022-08-21T01:37:24;15.80;99.90
7762;DHT22;3925;48.636;9.516;2022-08-21T01:39:53;15.70;99.90
7762;DHT22;3925;48.636;9.516;2022-08-21T01:42:20;15.70;99.90
7762;DHT22;3925;48.636;9.516;2022-08-21T01:44:47;15.70;99.90
7762;DHT22;3925;48.636;9.516;2022-08-21T01:47:14;15.70;99.90
7762;DHT22;3925;48.636;9.516;2022-08-21T01:49:42;15.70;99.90
7762;DHT22;3925;48.636;9.516;2022-08-21T01:52:10;15.80;99.90
7762;DHT22;3925;48.636;9.516;2022-08-21T01:54:38;15.70;99.90
7762;DHT22;3925;48.636;9.516;2022-08-21T01:57:07;15.70;99.90
7762;DHT22;3925;48.636;9.516;2022-08-21T01:59:34;15.70;99.90
7762;DHT22;3925;48.636;9.516;2022-08-21T02:02:02;15.50;99.90
7762;DHT22;3925;48.636;9.516;2022-08-21T02:04:29;15.40;99.90
7762;DHT22;3925;48.636;9.516;2022-08-21T02:06:56;15.40;99.90
7762;DHT22;3925;48.636;9.516;2022-08-21T02:09:23;15.40;99.90
7762;DHT22;3925;48.636;9.516;2022-08-21T02:11:50;15.20;99.90
7762;DHT22;3925;48.636;9.516;2022-08-21T02:14:19;15.50;99.90
7762;DHT22;3925;48.636;9.516;2022-08-21T02:16:46;15.50;99.90
7762;DHT22;3925;48.636;9.516;2022-08-21T02:19:14;15.50;99.90
7762;DHT22;3925;48.636;9.516;2022-08-21T02:21:42;15.30;99.90
7762;DHT22;3925;48.636;9.516;2022-08-21T02:24:11;15.20;99.90
7762;DHT22;3925;48.636;9.516;2022-08-21T02:26:38;15.10;99.90
7762;DHT22;3925;48.636;9.516;2022-08-21T02:29:06;15.20;99.90
7762;DHT22;3925;48.636;9.516;2022-08-21T02:31:34;15.30;99.90
7762;DHT22;3925;48.636;9.516;2022-08-21T02:34:01;15.30;99.90
7762;DHT22;3925;48.636;9.516;2022-08-21T02:36:28;15.30;99.90
7762;DHT22;3925;48.636;9.516;2022-08-21T02:38:55;15.10;99.90
7762;DHT22;3925;48.636;9.516;2022-08-21T02:41:22;14.90;99.90
7762;DHT22;3925;48.636;9.516;2022-08-21T02:43:49;14.70;99.90
7762;DHT22;3925;48.636;9.516;2022-08-21T02:46:19;14.50;99.90
7762;DHT22;3925;48.636;9.516;2022-08-21T02:48:47;14.60;99.90
7762;DHT22;3925;48.636;9.516;2022-08-21T02:51:16;14.70;99.90
7762;DHT22;3925;48.636;9.516;2022-08-21T02:53:44;14.60;99.90
7762;DHT22;3925;48.636;9.516;2022-08-21T02:56:14;14.70;99.90
7762;DHT22;3925;48.636;9.516;2022-08-21T02:58:45;14.90;99.90
7762;DHT22;3925;48.636;9.516;2022-08-21T03:01:12;15.10;99.90
7762;DHT22;3925;48.636;9.516;2022-08-21T03:03:41;15.10;99.90
7762;DHT22;3925;48.636;9.516;2022-08-21T03:06:13;15.10;99.90
7762;DHT22;3925;48.636;9.516;2022-08-21T03:08:40;15.00;99.90
7762;DHT22;3925;48.636;9.516;2022-08-21T03:11:11;15.00;99.90
7762;DHT22;3925;48.636;9.516;2022-08-21T03:13:38;14.80;99.90
7762;DHT22;3925;48.636;9.516;2022-08-21T03:16:05;14.60;99.90
7762;DHT22;3925;48.636;9.516;2022-08-21T03:18:33;14.50;99.90
7762;DHT22;3925;48.636;9.516;2022-08-21T03:21:00;14.60;99.90
7762;DHT22;3925;48.636;9.516;2022-08-21T03:23:29;14.50;99.90
7762;DHT22;3925;48.636;9.516;2022-08-21T03:25:56;14.50;99.90
7762;DHT22;3925;48.636;9.516;2022-08-21T03:28:24;14.40;99.90
7762;DHT22;3925;48.636;9.516;2022-08-21T03:30:51;14.70;99.90
7762;DHT22;3925;48.636;9.516;2022-08-21T03:33:20;14.60;99.90
7762;DHT22;3925;48.636;9.516;2022-08-21T03:35:52;14.60;99.90
7762;DHT22;3925;48.636;9.516;2022-08-21T03:38:20;14.60;99.90
7762;DHT22;3925;48.636;9.516;2022-08-21T03:40:48;14.80;99.90
7762;DHT22;3925;48.636;9.516;2022-08-21T03:43:15;14.90;99.90
7762;DHT22;3925;48.636;9.516;2022-08-21T03:45:42;14.90;99.90
7762;DHT22;3925;48.636;9.516;2022-08-21T03:48:09;14.70;99.90
7762;DHT22;3925;48.636;9.516;2022-08-21T03:50:39;14.70;99.90
7762;DHT22;3925;48.636;9.516;2022-08-21T03:53:07;14.80;99.90
7762;DHT22;3925;48.636;9.516;2022-08-21T03:55:34;14.80;99.90
7762;DHT22;3925;48.636;9.516;2022-08-21T03:58:02;14.60;99.90
7762;DHT22;3925;48.636;9.516;2022-08-21T04:00:30;14.60;99.90
7762;DHT22;3925;48.636;9.516;2022-08-21T04:02:57;14.60;99.90
7762;DHT22;3925;48.636;9.516;2022-08-21T04:05:24;14.50;99.90
7762;DHT22;3925;48.636;9.516;2022-08-21T04:07:55;14.50;99.90
7762;DHT22;3925;48.636;9.516;2022-08-21T04:10:23;14.40;99.90
7762;DHT22;3925;48.636;9.516;2022-08-21T04:12:51;14.50;99.90
7762;DHT22;3925;48.636;9.516;2022-08-21T04:15:20;14.30;99.90
7762;DHT22;3925;48.636;9.516;2022-08-21T04:17:48;14.40;99.90
7762;DHT22;3925;48.636;9.516;2022-08-21T04:20:15;14.70;99.90
7762;DHT22;3925;48.636;9.516;2022-08-21T04:22:42;14.60;99.90
7762;DHT22;3925;48.636;9.516;2022-08-21T04:25:10;14.50;99.90
7762;DHT22;3925;48.636;9.516;2022-08-21T04:27:37;14.60;99.90
7762;DHT22;3925;48.636;9.516;2022-08-21T04:30:05;14.50;99.90
7762;DHT22;3925;48.636;9.516;2022-08-21T04:32:34;14.50;99.90
7762;DHT22;3925;48.636;9.516;2022-08-21T04:35:03;14.50;99.90
7762;DHT22;3925;48.636;9.516;2022-08-21T04:37:31;14.50;99.90
7762;DHT22;3925;48.636;9.516;2022-08-21T04:39:58;14.50;99.90
7762;DHT22;3925;48.636;9.516;2022-08-21T04:42:26;14.30;99.90
7762;DHT22;3925;48.636;9.516;2022-08-21T04:44:54;14.20;99.90
7762;DHT22;3925;48.636;9.516;2022-08-21T04:47:22;14.50;99.90
7762;DHT22;3925;48.636;9.516;2022-08-21T04:49:51;14.60;99.90
7762;DHT22;3925;48.636;9.516;2022-08-21T04:52:21;14.70;99.90
7762;DHT22;3925;48.636;9.516;2022-08-21T04:54:50;14.50;99.90
7762;DHT22;3925;48.636;9.516;2022-08-21T04:57:18;14.20;99.90
7762;DHT22;3925;48.636;9.516;2022-08-21T04:59:47;14.50;99.90
7762;DHT22;3925;48.636;9.516;2022-08-21T05:02:15;14.50;99.90
7762;DHT22;3925;48.636;9.516;2022-08-21T05:04:44;14.40;99.90
7762;DHT22;3925;48.636;9.516;2022-08-21T05:07:19;14.60;99.90
7762;DHT22;3925;48.636;9.516;2022-08-21T05:09:47;14.90;99.90
7762;DHT22;3925;48.636;9.516;2022-08-21T05:12:14;15.20;99.90
7762;DHT22;3925;48.636;9.516;2022-08-21T05:14:41;15.20;99.90
7762;DHT22;3925;48.636;9.516;2022-08-21T05:17:08;15.10;99.90
7762;DHT22;3925;48.636;9.516;2022-08-21T05:19:36;15.50;99.90
7762;DHT22;3925;48.636;9.516;2022-08-21T05:22:02;15.90;99.90
7762;DHT22;3925;48.636;9.516;2022-08-21T05:24:32;16.20;99.90
7762;DHT22;3925;48.636;9.516;2022-08-21T05:26:59;16.60;99.90
7762;DHT22;3925;48.636;9.516;2022-08-21T05:29:26;17.40;99.90
7762;DHT22;3925;48.636;9.516;2022-08-21T05:31:56;18.30;99.90
7762;DHT22;3925;48.636;9.516;2022-08-21T05:34:24;19.50;99.90
7762;DHT22;3925;48.636;9.516;2022-08-21T05:36:50;20.70;99.90
7762;DHT22;3925;48.636;9.516;2022-08-21T05:39:17;22.20;99.90
7762;DHT22;3925;48.636;9.516;2022-08-21T05:41:46;23.50;99.90
7762;DHT22;3925;48.636;9.516;2022-08-21T05:44:13;24.60;99.90
7762;DHT22;3925;48.636;9.516;2022-08-21T05:46:40;25.70;97.80
7762;DHT22;3925;48.636;9.516;2022-08-21T05:49:07;26.70;95.90
7762;DHT22;3925;48.636;9.516;2022-08-21T05:51:34;27.70;93.20
7762;DHT22;3925;48.636;9.516;2022-08-21T05:54:01;28.50;90.30
7762;DHT22;3925;48.636;9.516;2022-08-21T05:56:28;29.20;85.00
7762;DHT22;3925;48.636;9.516;2022-08-21T05:58:56;30.00;83.60
7762;DHT22;3925;48.636;9.516;2022-08-21T06:01:23;31.00;77.20
7762;DHT22;3925;48.636;9.516;2022-08-21T06:03:50;31.80;71.50
7762;DHT22;3925;48.636;9.516;2022-08-21T06:06:17;32.40;66.80
7762;DHT22;3925;48.636;9.516;2022-08-21T06:08:44;32.80;64.30
7762;DHT22;3925;48.636;9.516;2022-08-21T06:11:11;33.30;61.80
7762;DHT22;3925;48.636;9.516;2022-08-21T06:13:38;33.80;58.50
7762;DHT22;3925;48.636;9.516;2022-08-21T06:16:10;34.20;57.50
7762;DHT22;3925;48.636;9.516;2022-08-21T06:18:38;34.70;54.80
7762;DHT22;3925;48.636;9.516;2022-08-21T06:21:05;35.00;54.00
7762;DHT22;3925;48.636;9.516;2022-08-21T06:23:32;35.30;52.70
7762;DHT22;3925;48.636;9.516;2022-08-21T06:25:59;35.60;52.90
7762;DHT22;3925;48.636;9.516;2022-08-21T06:28:26;36.30;49.90
7762;DHT22;3925;48.636;9.516;2022-08-21T06:30:54;36.50;49.60
7762;DHT22;3925;48.636;9.516;2022-08-21T06:33:22;36.60;48.40
7762;DHT22;3925;48.636;9.516;2022-08-21T06:35:49;37.00;48.00
7762;DHT22;3925;48.636;9.516;2022-08-21T06:38:16;37.40;47.60
7762;DHT22;3925;48.636;9.516;2022-08-21T06:40:43;37.60;46.10
7762;DHT22;3925;48.636;9.516;2022-08-21T06:43:13;37.50;46.60
7762;DHT22;3925;48.636;9.516;2022-08-21T06:45:41;38.20;44.70
7762;DHT22;3925;48.636;9.516;2022-08-21T06:48:08;38.60;44.70
7762;DHT22;3925;48.636;9.516;2022-08-21T06:50:36;38.30;43.50
7762;DHT22;3925;48.636;9.516;2022-08-21T06:53:06;38.70;43.50
7762;DHT22;3925;48.636;9.516;2022-08-21T06:55:33;38.80;42.80
7762;DHT22;3925;48.636;9.516;2022-08-21T06:58:00;39.10;41.40
7762;DHT22;3925;48.636;9.516;2022-08-21T07:00:28;39.90;41.00
7762;DHT22;3925;48.636;9.516;2022-08-21T07:02:56;40.30;39.40
7762;DHT22;3925;48.636;9.516;2022-08-21T07:05:25;40.40;38.40
7762;DHT22;3925;48.636;9.516;2022-08-21T07:07:53;40.30;38.40
7762;DHT22;3925;48.636;9.516;2022-08-21T07:10:20;40.80;36.60
7762;DHT22;3925;48.636;9.516;2022-08-21T07:12:47;40.30;37.60
7762;DHT22;3925;48.636;9.516;2022-08-21T07:15:14;41.20;36.50
7762;DHT22;3925;48.636;9.516;2022-08-21T07:17:41;40.90;37.30
7762;DHT22;3925;48.636;9.516;2022-08-21T07:20:08;41.40;35.80
7762;DHT22;3925;48.636;9.516;2022-08-21T07:22:36;41.40;35.70
7762;DHT22;3925;48.636;9.516;2022-08-21T07:25:06;41.60;35.60
7762;DHT22;3925;48.636;9.516;2022-08-21T07:27:34;41.90;36.30
7762;DHT22;3925;48.636;9.516;2022-08-21T07:30:01;42.30;35.40
7762;DHT22;3925;48.636;9.516;2022-08-21T07:32:27;42.50;35.20
7762;DHT22;3925;48.636;9.516;2022-08-21T07:34:54;41.60;34.80
7762;DHT22;3925;48.636;9.516;2022-08-21T07:37:21;42.00;34.70
7762;DHT22;3925;48.636;9.516;2022-08-21T07:39:48;42.20;34.30
7762;DHT22;3925;48.636;9.516;2022-08-21T07:42:17;42.00;34.70
7762;DHT22;3925;48.636;9.516;2022-08-21T07:44:44;42.90;33.20
7762;DHT22;3925;48.636;9.516;2022-08-21T07:47:11;43.50;32.50
7762;DHT22;3925;48.636;9.516;2022-08-21T07:49:38;43.00;33.00
7762;DHT22;3925;48.636;9.516;2022-08-21T07:52:05;43.30;32.10
7762;DHT22;3925;48.636;9.516;2022-08-21T07:54:32;43.90;30.80
7762;DHT22;3925;48.636;9.516;2022-08-21T07:57:00;44.30;30.50
7762;DHT22;3925;48.636;9.516;2022-08-21T07:59:28;44.00;30.10
7762;DHT22;3925;48.636;9.516;2022-08-21T08:01:55;44.30;30.20
7762;DHT22;3925;48.636;9.516;2022-08-21T08:04:23;44.60;30.50
7762;DHT22;3925;48.636;9.516;2022-08-21T08:06:50;44.50;30.80
7762;DHT22;3925;48.636;9.516;2022-08-21T08:09:17;45.10;29.30
7762;DHT22;3925;48.636;9.516;2022-08-21T08:11:44;45.30;29.30
7762;DHT22;3925;48.636;9.516;2022-08-21T08:14:11;45.00;29.50
7762;DHT22;3925;48.636;9.516;2022-08-21T08:16:39;45.00;29.00
7762;DHT22;3925;48.636;9.516;2022-08-21T08:19:06;43.90;30.30
7762;DHT22;3925;48.636;9.516;2022-08-21T08:21:34;43.50;30.80
7762;DHT22;3925;48.636;9.516;2022-08-21T08:24:03;44.00;30.00
7762;DHT22;3925;48.636;9.516;2022-08-21T08:26:30;44.60;29.00
7762;DHT22;3925;48.636;9.516;2022-08-21T08:28:57;44.80;29.30
7762;DHT22;3925;48.636;9.516;2022-08-21T08:31:24;43.80;28.50
7762;DHT22;3925;48.636;9.516;2022-08-21T08:33:52;44.60;28.50
7762;DHT22;3925;48.636;9.516;2022-08-21T08:36:19;44.90;28.30
7762;DHT22;3925;48.636;9.516;2022-08-21T08:38:47;44.50;27.80
7762;DHT22;3925;48.636;9.516;2022-08-21T08:41:16;44.20;29.40
7762;DHT22;3925;48.636;9.516;2022-08-21T08:43:50;44.20;29.10
7762;DHT22;3925;48.636;9.516;2022-08-21T08:46:20;44.70;29.00
7762;DHT22;3925;48.636;9.516;2022-08-21T08:48:53;44.60;29.50
7762;DHT22;3925;48.636;9.516;2022-08-21T08:51:26;44.10;30.20
7762;DHT22;3925;48.636;9.516;2022-08-21T08:53:58;44.00;29.00
7762;DHT22;3925;48.636;9.516;2022-08-21T08:56:28;44.60;28.50
7762;DHT22;3925;48.636;9.516;2022-08-21T08:58:59;44.00;28.90
7762;DHT22;3925;48.636;9.516;2022-08-21T09:01:27;44.10;28.00
7762;DHT22;3925;48.636;9.516;2022-08-21T09:03:56;44.20;29.00
7762;DHT22;3925;48.636;9.516;2022-08-21T09:06:44;44.80;28.40
7762;DHT22;3925;48.636;9.516;2022-08-21T09:09:25;45.40;28.20
7762;DHT22;3925;48.636;9.516;2022-08-21T09:12:01;45.00;27.10
7762;DHT22;3925;48.636;9.516;2022-08-21T09:14:47;45.10;27.40
7762;DHT22;3925;48.636;9.516;2022-08-21T09:17:26;45.60;27.10
7762;DHT22;3925;48.636;9.516;2022-08-21T09:20:08;45.10;26.40
7762;DHT22;3925;48.636;9.516;2022-08-21T09:22:43;44.50;28.20
7762;DHT22;3925;48.636;9.516;2022-08-21T09:25:18;45.20;27.30
7762;DHT22;3925;48.636;9.516;2022-08-21T09:27:49;45.40;27.20
7762;DHT22;3925;48.636;9.516;2022-08-21T09:30:19;45.70;26.40
7762;DHT22;3925;48.636;9.516;2022-08-21T09:32:50;45.80;27.40
7762;DHT22;3925;48.636;9.516;2022-08-21T09:35:20;44.70;27.10
7762;DHT22;3925;48.636;9.516;2022-08-21T09:37:51;45.30;26.90
7762;DHT22;3925;48.636;9.516;2022-08-21T09:40:27;43.80;27.70
7762;DHT22;3925;48.636;9.516;2022-08-21T09:42:57;44.00;27.20
7762;DHT22;3925;48.636;9.516;2022-08-21T09:45:24;41.80;27.80
7762;DHT22;3925;48.636;9.516;2022-08-21T09:47:51;43.20;28.90
7762;DHT22;3925;48.636;9.516;2022-08-21T09:50:21;42.90;28.20
7762;DHT22;3925;48.636;9.516;2022-08-21T09:52:51;43.80;27.80
7762;DHT22;3925;48.636;9.516;2022-08-21T09:55:28;44.20;27.30
7762;DHT22;3925;48.636;9.516;2022-08-21T09:58:14;44.10;27.10
7762;DHT22;3925;48.636;9.516;2022-08-21T10:00:42;44.80;27.40
7762;DHT22;3925;48.636;9.516;2022-08-21T10:03:13;45.10;26.20
7762;DHT22;3925;48.636;9.516;2022-08-21T10:05:52;45.30;26.80
7762;DHT22;3925;48.636;9.516;2022-08-21T10:08:20;45.10;27.00
7762;DHT22;3925;48.636;9.516;2022-08-21T10:10:51;45.50;27.50
7762;DHT22;3925;48.636;9.516;2022-08-21T10:13:22;45.60;26.80
7762;DHT22;3925;48.636;9.516;2022-08-21T10:16:02;45.40;25.60
7762;DHT22;3925;48.636;9.516;2022-08-21T10:18:36;46.00;27.20
7762;DHT22;3925;48.636;9.516;2022-08-21T10:21:14;45.90;25.40
7762;DHT22;3925;48.636;9.516;2022-08-21T10:23:54;45.10;26.20
7762;DHT22;3925;48.636;9.516;2022-08-21T10:26:41;44.50;26.50
7762;DHT22;3925;48.636;9.516;2022-08-21T10:29:19;44.60;27.00
7762;DHT22;3925;48.636;9.516;2022-08-21T10:31:55;44.60;26.60
7762;DHT22;3925;48.636;9.516;2022-08-21T10:34:32;44.90;27.10
7762;DHT22;3925;48.636;9.516;2022-08-21T10:37:18;44.10;25.50
7762;DHT22;3925;48.636;9.516;2022-08-21T10:39:58;44.50;26.50
7762;DHT22;3925;48.636;9.516;2022-08-21T10:42:35;44.20;26.30
7762;DHT22;3925;48.636;9.516;2022-08-21T10:45:10;40.80;27.70
7762;DHT22;3925;48.636;9.516;2022-08-21T10:47:44;40.60;29.40
7762;DHT22;3925;48.636;9.516;2022-08-21T10:50:27;40.40;29.20
7762;DHT22;3925;48.636;9.516;2022-08-21T10:53:28;40.10;28.70
7762;DHT22;3925;48.636;9.516;2022-08-21T10:56:02;39.60;30.00
7762;DHT22;3925;48.636;9.516;2022-08-21T10:58:36;40.40;31.20
7762;DHT22;3925;48.636;9.516;2022-08-21T11:01:09;41.10;29.00
7762;DHT22;3925;48.636;9.516;2022-08-21T11:03:42;40.80;28.50
7762;DHT22;3925;48.636;9.516;2022-08-21T11:06:14;40.40;29.40
7762;DHT22;3925;48.636;9.516;2022-08-21T11:08:46;39.80;31.10
7762;DHT22;3925;48.636;9.516;2022-08-21T11:11:26;39.50;30.80
7762;DHT22;3925;48.636;9.516;2022-08-21T11:13:56;36.10;33.30
7762;DHT22;3925;48.636;9.516;2022-08-21T11:16:33;35.80;37.70
7762;DHT22;3925;48.636;9.516;2022-08-21T11:19:07;35.30;36.00
7762;DHT22;3925;48.636;9.516;2022-08-21T11:21:38;34.80;37.00
7762;DHT22;3925;48.636;9.516;2022-08-21T11:24:22;33.90;39.80
7762;DHT22;3925;48.636;9.516;2022-08-21T11:26:53;33.80;41.50
7762;DHT22;3925;48.636;9.516;2022-08-21T11:29:27;33.70;41.50
7762;DHT22;3925;48.636;9.516;2022-08-21T11:32:07;33.40;42.00
7762;DHT22;3925;48.636;9.516;2022-08-21T11:34:47;33.20;40.80
7762;DHT22;3925;48.636;9.516;2022-08-21T11:37:24;33.10;41.80
7762;DHT22;3925;48.636;9.516;2022-08-21T11:40:03;32.50;41.40
7762;DHT22;3925;48.636;9.516;2022-08-21T11:42:37;32.10;39.40
7762;DHT22;3925;48.636;9.516;2022-08-21T11:45:16;31.30;41.00
7762;DHT22;3925;48.636;9.516;2022-08-21T11:47:54;31.10;41.80
7762;DHT22;3925;48.636;9.516;2022-08-21T11:50:27;31.20;39.00
7762;DHT22;3925;48.636;9.516;2022-08-21T11:52:58;30.80;42.70
7762;DHT22;3925;48.636;9.516;2022-08-21T11:55:32;30.80;46.30
7762;DHT22;3925;48.636;9.516;2022-08-21T11:58:04;31.00;44.40
7762;DHT22;3925;48.636;9.516;2022-08-21T12:00:34;30.50;40.60
7762;DHT22;3925;48.636;9.516;2022-08-21T12:03:09;30.30;41.60
7762;DHT22;3925;48.636;9.516;2022-08-21T12:05:40;30.00;43.50
7762;DHT22;3925;48.636;9.516;2022-08-21T12:08:12;30.10;42.70
7762;DHT22;3925;48.636;9.516;2022-08-21T12:10:46;29.10;41.50
7762;DHT22;3925;48.636;9.516;2022-08-21T12:13:25;28.80;42.70
7762;DHT22;3925;48.636;9.516;2022-08-21T12:15:52;28.90;44.70
7762;DHT22;3925;48.636;9.516;2022-08-21T12:18:31;29.10;45.60
7762;DHT22;3925;48.636;9.516;2022-08-21T12:21:04;28.70;43.60
7762;DHT22;3925;48.636;9.516;2022-08-21T12:23:33;28.80;46.70
7762;DHT22;3925;48.636;9.516;2022-08-21T12:26:23;28.50;44.30
7762;DHT22;3925;48.636;9.516;2022-08-21T12:28:51;28.90;45.50
7762;DHT22;3925;48.636;9.516;2022-08-21T12:31:29;29.10;44.80
7762;DHT22;3925;48.636;9.516;2022-08-21T12:33:59;29.30;45.40
7762;DHT22;3925;48.636;9.516;2022-08-21T12:36:41;29.20;43.70
7762;DHT22;3925;48.636;9.516;2022-08-21T12:39:13;29.10;46.20
7762;DHT22;3925;48.636;9.516;2022-08-21T12:41:48;29.20;45.00
7762;DHT22;3925;48.636;9.516;2022-08-21T12:44:20;29.00;44.00
7762;DHT22;3925;48.636;9.516;2022-08-21T12:46:51;29.10;46.90
7762;DHT22;3925;48.636;9.516;2022-08-21T12:49:27;29.10;47.30
7762;DHT22;3925;48.636;9.516;2022-08-21T12:51:56;29.30;47.40
7762;DHT22;3925;48.636;9.516;2022-08-21T12:54:27;29.10;47.10
7762;DHT22;3925;48.636;9.516;2022-08-21T12:56:58;28.90;46.70
7762;DHT22;3925;48.636;9.516;2022-08-21T12:59:26;28.50;46.80
7762;DHT22;3925;48.636;9.516;2022-08-21T13:01:54;28.70;47.00
7762;DHT22;3925;48.636;9.516;2022-08-21T13:04:31;28.70;48.40
7762;DHT22;3925;48.636;9.516;2022-08-21T13:06:59;28.40;46.40
7762;DHT22;3925;48.636;9.516;2022-08-21T13:09:28;28.00;46.80
7762;DHT22;3925;48.636;9.516;2022-08-21T13:11:58;28.00;48.00
7762;DHT22;3925;48.636;9.516;2022-08-21T13:14:30;27.70;47.70
7762;DHT22;3925;48.636;9.516;2022-08-21T13:17:01;27.80;49.70
7762;DHT22;3925;48.636;9.516;2022-08-21T13:19:30;27.70;47.10
7762;DHT22;3925;48.636;9.516;2022-08-21T13:21:59;27.80;48.30
7762;DHT22;3925;48.636;9.516;2022-08-21T13:24:28;27.80;47.90
7762;DHT22;3925;48.636;9.516;2022-08-21T13:26:57;27.50;48.60
7762;DHT22;3925;48.636;9.516;2022-08-21T13:29:29;27.40;48.30
7762;DHT22;3925;48.636;9.516;2022-08-21T13:31:58;27.40;48.70
7762;DHT22;3925;48.636;9.516;2022-08-21T13:34:30;27.10;49.30
7762;DHT22;3925;48.636;9.516;2022-08-21T13:37:01;27.10;49.40
7762;DHT22;3925;48.636;9.516;2022-08-21T13:39:30;26.90;49.80
7762;DHT22;3925;48.636;9.516;2022-08-21T13:42:01;27.20;51.60
7762;DHT22;3925;48.636;9.516;2022-08-21T13:44:34;27.40;49.80
7762;DHT22;3925;48.636;9.516;2022-08-21T13:47:03;27.10;49.60
7762;DHT22;3925;48.636;9.516;2022-08-21T13:49:32;27.30;49.90
7762;DHT22;3925;48.636;9.516;2022-08-21T13:52:00;27.40;49.50
7762;DHT22;3925;48.636;9.516;2022-08-21T13:54:36;27.30;50.10
7762;DHT22;3925;48.636;9.516;2022-08-21T13:57:16;27.30;49.60
7762;DHT22;3925;48.636;9.516;2022-08-21T13:59:43;27.30;50.60
7762;DHT22;3925;48.636;9.516;2022-08-21T14:02:13;27.00;48.90
7762;DHT22;3925;48.636;9.516;2022-08-21T14:04:47;26.90;49.70
7762;DHT22;3925;48.636;9.516;2022-08-21T14:07:18;26.90;49.80
7762;DHT22;3925;48.636;9.516;2022-08-21T14:09:47;26.80;50.10
7762;DHT22;3925;48.636;9.516;2022-08-21T14:12:18;26.90;49.50
7762;DHT22;3925;48.636;9.516;2022-08-21T14:14:46;26.60;50.70
7762;DHT22;3925;48.636;9.516;2022-08-21T14:17:25;26.70;51.40
7762;DHT22;3925;48.636;9.516;2022-08-21T14:19:53;26.90;50.90
7762;DHT22;3925;48.636;9.516;2022-08-21T14:22:31;26.90;51.30
7762;DHT22;3925;48.636;9.516;2022-08-21T14:25:00;27.00;53.00
7762;DHT22;3925;48.636;9.516;2022-08-21T14:27:30;27.00;52.10
7762;DHT22;3925;48.636;9.516;2022-08-21T14:30:00;27.00;51.60
7762;DHT22;3925;48.636;9.516;2022-08-21T14:32:30;26.80;49.80
7762;DHT22;3925;48.636;9.516;2022-08-21T14:35:02;26.70;49.20
7762;DHT22;3925;48.636;9.516;2022-08-21T14:37:29;26.70;50.10
7762;DHT22;3925;48.636;9.516;2022-08-21T14:39:56;26.80;50.80
7762;DHT22;3925;48.636;9.516;2022-08-21T14:42:24;26.70;48.80
7762;DHT22;3925;48.636;9.516;2022-08-21T14:44:54;26.60;49.10
7762;DHT22;3925;48.636;9.516;2022-08-21T14:47:23;26.60;51.00
7762;DHT22;3925;48.636;9.516;2022-08-21T14:49:50;26.40;51.30
7762;DHT22;3925;48.636;9.516;2022-08-21T14:52:19;26.40;50.70
7762;DHT22;3925;48.636;9.516;2022-08-21T14:54:48;26.40;51.90
7762;DHT22;3925;48.636;9.516;2022-08-21T14:57:15;26.30;51.10
7762;DHT22;3925;48.636;9.516;2022-08-21T14:59:42;26.50;51.70
7762;DHT22;3925;48.636;9.516;2022-08-21T15:02:11;26.50;51.00
7762;DHT22;3925;48.636;9.516;2022-08-21T15:04:38;26.50;52.40
7762;DHT22;3925;48.636;9.516;2022-08-21T15:07:05;26.40;50.90
7762;DHT22;3925;48.636;9.516;2022-08-21T15:09:32;26.50;51.00
7762;DHT22;3925;48.636;9.516;2022-08-21T15:12:01;26.50;51.00
7762;DHT22;3925;48.636;9.516;2022-08-21T15:14:30;26.30;50.40
7762;DHT22;3925;48.636;9.516;2022-08-21T15:16:58;26.30;50.90
7762;DHT22;3925;48.636;9.516;2022-08-21T15:19:27;26.40;51.70
7762;DHT22;3925;48.636;9.516;2022-08-21T15:21:55;26.50;51.90
7762;DHT22;3925;48.636;9.516;2022-08-21T15:24:22;26.40;49.40
7762;DHT22;3925;48.636;9.516;2022-08-21T15:26:49;26.40;48.80
7762;DHT22;3925;48.636;9.516;2022-08-21T15:29:17;26.40;48.20
7762;DHT22;3925;48.636;9.516;2022-08-21T15:31:51;26.50;49.10
7762;DHT22;3925;48.636;9.516;2022-08-21T15:34:19;26.30;48.70
7762;DHT22;3925;48.636;9.516;2022-08-21T15:36:48;26.30;48.20
7762;DHT22;3925;48.636;9.516;2022-08-21T15:39:15;26.30;48.70
7762;DHT22;3925;48.636;9.516;2022-08-21T15:41:43;26.20;48.80
7762;DHT22;3925;48.636;9.516;2022-08-21T15:44:11;26.20;50.00
7762;DHT22;3925;48.636;9.516;2022-08-21T15:46:39;26.20;50.50
7762;DHT22;3925;48.636;9.516;2022-08-21T15:49:07;26.20;50.10
7762;DHT22;3925;48.636;9.516;2022-08-21T15:51:34;26.20;50.60
7762;DHT22;3925;48.636;9.516;2022-08-21T15:54:03;26.20;49.90
7762;DHT22;3925;48.636;9.516;2022-08-21T15:56:34;26.10;49.60
7762;DHT22;3925;48.636;9.516;2022-08-21T15:59:05;26.10;49.00
7762;DHT22;3925;48.636;9.516;2022-08-21T16:01:34;26.00;48.10
7762;DHT22;3925;48.636;9.516;2022-08-21T16:04:02;25.90;47.50
7762;DHT22;3925;48.636;9.516;2022-08-21T16:06:30;25.90;48.40
7762;DHT22;3925;48.636;9.516;2022-08-21T16:08:57;25.90;50.10
7762;DHT22;3925;48.636;9.516;2022-08-21T16:11:26;25.80;50.90
7762;DHT22;3925;48.636;9.516;2022-08-21T16:13:54;25.80;50.10
7762;DHT22;3925;48.636;9.516;2022-08-21T16:16:23;25.70;50.60
7762;DHT22;3925;48.636;9.516;2022-08-21T16:18:51;25.50;49.70